createdAt,value
2022-10-09T00:04:24.407Z,23.64
2022-10-09T00:07:29.520Z,23.56
2022-10-09T00:10:33.028Z,23.56
2022-10-09T00:13:37.409Z,23.56
2022-10-09T00:16:40.843Z,23.55
2022-10-09T00:19:44.402Z,23.54
2022-10-09T00:22:49.355Z,23.55
2022-10-09T00:25:55.548Z,23.53
2022-10-09T00:28:59.008Z,23.52
2022-10-09T00:32:02.446Z,23.51
2022-10-09T00:35:06.674Z,23.51
2022-10-09T00:38:12.460Z,23.50
2022-10-09T00:41:18.992Z,23.49
2022-10-09T00:44:54.259Z,23.49
2022-10-09T00:48:03.921Z,23.45
2022-10-09T00:51:07.372Z,23.44
2022-10-09T00:54:17.362Z,23.45
2022-10-09T00:57:21.797Z,23.43
2022-10-09T01:00:26.881Z,23.42
2022-10-09T01:03:30.500Z,23.42
2022-10-09T01:07:05.791Z,23.41
2022-10-09T01:10:31.471Z,23.40
2022-10-09T01:13:45.901Z,23.38
2022-10-09T01:16:59.857Z,23.37
2022-10-09T01:20:32.817Z,23.38
2022-10-09T01:24:05.867Z,23.36
2022-10-09T01:27:18.411Z,23.35
2022-10-09T01:30:22.188Z,23.33
2022-10-09T01:33:25.526Z,23.33
2022-10-09T01:36:31.514Z,23.34
2022-10-09T01:39:38.279Z,23.32
2022-10-09T01:42:43.397Z,23.32
2022-10-09T01:45:49.108Z,23.31
2022-10-09T01:49:10.800Z,23.32
2022-10-09T01:52:40.959Z,23.30
2022-10-09T01:55:54.817Z,23.29
2022-10-09T01:59:05.204Z,23.29
2022-10-09T02:02:10.052Z,23.28
2022-10-09T02:05:20.334Z,23.29
2022-10-09T02:08:26.065Z,23.28
2022-10-09T02:11:33.400Z,23.28
2022-10-09T02:14:39.477Z,23.27
2022-10-09T02:17:48.626Z,23.27
2022-10-09T02:20:59.261Z,23.26
2022-10-09T02:24:07.460Z,23.26
2022-10-09T02:27:12.626Z,23.24
2022-10-09T02:30:19.054Z,23.24
2022-10-09T02:33:28.988Z,23.24
2022-10-09T02:36:33.145Z,23.23
2022-10-09T02:39:37.279Z,23.23
2022-10-09T02:42:40.592Z,23.22
2022-10-09T02:45:45.552Z,23.22
2022-10-09T02:48:49.081Z,23.22
2022-10-09T02:51:52.713Z,23.22
2022-10-09T02:54:55.738Z,23.21
2022-10-09T02:57:59.356Z,23.21
2022-10-09T03:01:04.894Z,23.20
2022-10-09T03:04:08.710Z,23.19
2022-10-09T03:07:11.875Z,23.20
2022-10-09T03:10:16.036Z,23.21
2022-10-09T03:13:19.099Z,23.19
2022-10-09T03:16:27.177Z,23.18
2022-10-09T03:19:30.435Z,23.17
2022-10-09T03:22:34.157Z,23.17
2022-10-09T03:25:37.320Z,23.16
2022-10-09T03:28:44.296Z,23.17
2022-10-09T03:31:53.196Z,23.16
2022-10-09T03:34:57.325Z,23.15
2022-10-09T03:38:00.481Z,23.14
2022-10-09T03:41:06.681Z,23.15
2022-10-09T03:44:09.995Z,23.13
2022-10-09T03:47:14.948Z,23.13
2022-10-09T03:50:18.385Z,23.13
2022-10-09T03:53:22.081Z,23.11
2022-10-09T03:56:25.303Z,23.12
2022-10-09T03:59:28.757Z,23.12
2022-10-09T04:02:35.384Z,23.10
2022-10-09T04:05:40.112Z,23.11
2022-10-09T04:08:43.255Z,23.10
2022-10-09T04:11:46.737Z,23.10
2022-10-09T04:14:49.806Z,23.09
2022-10-09T04:17:54.658Z,23.10
2022-10-09T04:20:58.426Z,23.10
2022-10-09T04:24:03.808Z,23.10
2022-10-09T04:27:06.903Z,23.09
2022-10-09T04:30:11.824Z,23.10
2022-10-09T04:33:16.594Z,23.09
2022-10-09T04:36:20.079Z,23.09
2022-10-09T04:39:23.126Z,23.09
2022-10-09T04:42:26.716Z,23.09
2022-10-09T04:45:29.798Z,23.08
2022-10-09T04:48:39.481Z,23.09
2022-10-09T04:51:44.582Z,23.05
2022-10-09T04:54:48.386Z,23.05
2022-10-09T04:57:51.721Z,23.05
2022-10-09T05:00:55.465Z,23.05
2022-10-09T05:03:59.839Z,23.06
2022-10-09T05:07:03.428Z,23.07
2022-10-09T05:10:08.093Z,23.09
2022-10-09T05:13:11.384Z,22.88
2022-10-09T05:16:16.858Z,22.34
2022-10-09T05:19:21.506Z,21.77
2022-10-09T05:22:24.859Z,21.40
2022-10-09T05:25:28.565Z,21.37
2022-10-09T05:28:32.573Z,21.42
2022-10-09T05:31:36.035Z,21.53
2022-10-09T05:34:40.418Z,21.65
2022-10-09T05:37:45.660Z,21.77
2022-10-09T05:40:53.752Z,21.90
2022-10-09T05:44:02.332Z,22.06
2022-10-09T05:47:05.681Z,22.20
2022-10-09T05:50:10.799Z,22.32
2022-10-09T05:53:14.206Z,22.43
2022-10-09T05:56:20.760Z,22.54
2022-10-09T05:59:23.810Z,22.63
2022-10-09T06:02:27.129Z,22.72
2022-10-09T06:05:31.489Z,22.80
2022-10-09T06:08:38.400Z,22.89
2022-10-09T06:11:42.596Z,22.97
2022-10-09T06:14:46.032Z,23.05
2022-10-09T06:17:50.041Z,23.09
2022-10-09T06:21:00.423Z,23.16
2022-10-09T06:24:05.619Z,23.21
2022-10-09T06:27:09.000Z,23.27
2022-10-09T06:30:13.345Z,23.38
2022-10-09T06:33:17.186Z,23.49
2022-10-09T06:36:25.039Z,23.62
2022-10-09T06:39:29.456Z,23.73
2022-10-09T06:42:32.487Z,23.82
2022-10-09T06:45:39.784Z,23.88
2022-10-09T06:48:43.124Z,23.92
2022-10-09T06:51:48.307Z,23.95
2022-10-09T06:54:51.497Z,23.99
2022-10-09T06:57:54.998Z,24.10
2022-10-09T07:01:07.992Z,24.18
2022-10-09T07:04:18.223Z,24.22
2022-10-09T07:07:22.648Z,24.27
2022-10-09T07:10:25.924Z,24.31
2022-10-09T07:13:31.608Z,24.32
2022-10-09T07:16:38.010Z,24.36
2022-10-09T07:19:41.474Z,24.41
2022-10-09T07:22:46.327Z,24.43
2022-10-09T07:25:49.545Z,24.45
2022-10-09T07:28:54.451Z,24.47
2022-10-09T07:31:57.492Z,24.42
2022-10-09T07:35:00.787Z,24.38
2022-10-09T07:38:05.046Z,24.37
2022-10-09T07:43:20.985Z,24.09
2022-10-09T07:46:32.119Z,24.13
2022-10-09T07:49:36.690Z,24.11
2022-10-09T07:52:39.888Z,24.21
2022-10-09T07:55:47.345Z,24.36
2022-10-09T07:58:54.524Z,24.48
2022-10-09T08:01:57.815Z,24.57
2022-10-09T08:05:01.154Z,24.61
2022-10-09T08:08:04.485Z,24.64
2022-10-09T08:11:13.361Z,24.70
2022-10-09T08:14:19.600Z,24.70
2022-10-09T08:17:23.065Z,24.72
2022-10-09T08:20:26.172Z,24.76
2022-10-09T08:23:29.926Z,24.78
2022-10-09T08:26:33.417Z,24.81
2022-10-09T08:29:40.345Z,24.88
2022-10-09T08:32:43.808Z,24.90
2022-10-09T08:35:47.361Z,24.89
2022-10-09T08:38:51.311Z,24.90
2022-10-09T08:41:57.708Z,24.91
2022-10-09T08:45:04.244Z,24.94
2022-10-09T08:48:17.356Z,24.96
2022-10-09T08:51:27.547Z,24.94
2022-10-09T08:54:36.770Z,24.89
2022-10-09T08:57:40.938Z,24.84
2022-10-09T09:00:52.300Z,24.80
2022-10-09T09:04:15.327Z,24.76
2022-10-09T09:07:32.466Z,24.68
2022-10-09T09:10:43.590Z,24.57
2022-10-09T09:14:15.584Z,24.46
2022-10-09T09:17:35.564Z,24.39
2022-10-09T09:20:52.626Z,24.34
2022-10-09T09:23:56.501Z,24.28
2022-10-09T09:27:05.506Z,24.25
2022-10-09T09:30:19.898Z,24.22
2022-10-09T09:33:43.605Z,24.14
2022-10-09T09:36:54.009Z,24.08
2022-10-09T09:43:24.569Z,24.00
2022-10-09T09:46:31.516Z,24.02
2022-10-09T09:49:36.052Z,24.00
2022-10-09T09:52:45.540Z,23.99
2022-10-09T09:55:53.587Z,23.96
2022-10-09T09:58:56.849Z,23.93
2022-10-09T10:02:12.865Z,23.95
2022-10-09T10:05:23.920Z,23.92
2022-10-09T10:08:30.901Z,23.87
2022-10-09T10:11:35.763Z,23.85
2022-10-09T10:14:39.006Z,23.82
2022-10-09T10:17:42.176Z,23.79
2022-10-09T10:20:49.805Z,23.77
2022-10-09T10:27:13.029Z,23.72
2022-10-09T10:30:19.514Z,23.69
2022-10-09T10:33:29.949Z,23.68
2022-10-09T10:36:37.008Z,23.68
2022-10-09T10:39:47.796Z,23.68
2022-10-09T10:43:14.937Z,23.71
2022-10-09T10:46:26.953Z,23.67
2022-10-09T10:49:33.812Z,23.65
2022-10-09T10:52:53.610Z,23.65
2022-10-09T10:56:05.209Z,23.64
2022-10-09T10:59:32.559Z,23.75
2022-10-09T11:03:07.162Z,23.83
2022-10-09T11:06:24.550Z,23.85
2022-10-09T11:09:44.425Z,23.86
2022-10-09T11:12:59.361Z,23.86
2022-10-09T11:16:24.428Z,23.88
2022-10-09T11:19:53.549Z,23.86
2022-10-09T11:23:14.265Z,23.86
2022-10-09T11:26:34.231Z,23.86
2022-10-09T11:29:44.752Z,23.84
2022-10-09T11:33:02.286Z,23.84
2022-10-09T11:36:13.614Z,23.83
2022-10-09T11:39:22.303Z,23.79
2022-10-09T11:42:28.663Z,23.82
2022-10-09T11:45:42.656Z,23.81
2022-10-09T11:48:55.789Z,23.79
2022-10-09T11:52:09.886Z,23.77
2022-10-09T11:55:23.747Z,23.75
2022-10-09T11:58:28.527Z,23.72
2022-10-09T12:01:36.104Z,23.70
2022-10-09T12:04:55.794Z,23.69
2022-10-09T12:08:13.025Z,23.69
2022-10-09T12:11:21.123Z,23.65
2022-10-09T12:14:30.799Z,23.64
2022-10-09T12:17:38.371Z,23.62
2022-10-09T12:20:47.391Z,23.60
2022-10-09T12:23:52.618Z,23.59
2022-10-09T12:27:03.116Z,23.59
2022-10-09T12:30:21.714Z,23.61
2022-10-09T12:33:34.496Z,23.56
2022-10-09T12:36:37.854Z,23.56
2022-10-09T12:39:41.716Z,23.58
2022-10-09T12:42:47.103Z,23.60
2022-10-09T12:45:54.992Z,23.60
2022-10-09T12:49:00.108Z,23.60
2022-10-09T12:52:04.023Z,23.61
2022-10-09T12:55:24.809Z,23.67
2022-10-09T12:58:33.246Z,23.66
2022-10-09T13:01:39.423Z,23.67
2022-10-09T13:04:55.737Z,23.68
2022-10-09T13:07:58.783Z,23.66
2022-10-09T13:11:12.177Z,23.69
2022-10-09T13:14:35.684Z,23.69
2022-10-09T13:17:42.896Z,23.65
2022-10-09T13:20:46.721Z,23.66
2022-10-09T13:23:50.391Z,23.69
2022-10-09T13:26:54.136Z,23.75
2022-10-09T13:29:57.690Z,23.82
2022-10-09T13:33:02.211Z,23.88
2022-10-09T13:36:06.076Z,23.93
2022-10-09T13:39:14.678Z,23.97
2022-10-09T13:42:18.885Z,23.98
2022-10-09T13:45:23.676Z,24.02
2022-10-09T13:48:29.464Z,24.03
2022-10-09T13:51:32.690Z,24.03
2022-10-09T13:54:36.267Z,24.07
2022-10-09T13:57:39.789Z,24.10
2022-10-09T14:00:46.173Z,24.15
2022-10-09T14:03:51.131Z,24.19
2022-10-09T14:06:54.508Z,24.21
2022-10-09T14:09:57.606Z,24.24
2022-10-09T14:13:01.159Z,24.26
2022-10-09T14:16:06.454Z,24.31
2022-10-09T14:19:12.230Z,24.31
2022-10-09T14:22:16.398Z,24.32
2022-10-09T14:25:19.796Z,24.32
2022-10-09T14:28:23.215Z,24.34
2022-10-09T14:31:26.657Z,24.33
2022-10-09T14:34:31.426Z,24.35
2022-10-09T14:37:43.065Z,24.35
2022-10-09T14:40:46.572Z,24.35
2022-10-09T14:43:56.775Z,24.36
2022-10-09T14:46:59.982Z,24.36
2022-10-09T14:50:05.507Z,24.37
2022-10-09T14:53:08.835Z,24.36
2022-10-09T14:56:14.819Z,24.36
2022-10-09T14:59:18.145Z,24.35
2022-10-09T15:02:23.430Z,24.35
2022-10-09T15:05:27.807Z,24.35
2022-10-09T15:08:33.308Z,24.36
2022-10-09T15:11:37.075Z,24.35
2022-10-09T15:14:40.280Z,24.34
2022-10-09T15:17:43.305Z,24.34
2022-10-09T15:20:48.281Z,24.33
2022-10-09T15:23:54.575Z,24.32
2022-10-09T15:26:58.006Z,24.30
2022-10-09T15:30:01.114Z,24.29
2022-10-09T15:33:04.788Z,24.26
2022-10-09T15:36:09.434Z,24.25
2022-10-09T15:39:13.855Z,24.21
2022-10-09T15:42:17.102Z,24.18
2022-10-09T15:45:20.649Z,24.14
2022-10-09T15:48:26.146Z,24.14
2022-10-09T15:51:33.155Z,24.12
2022-10-09T15:54:36.276Z,24.08
2022-10-09T15:57:39.480Z,24.05
2022-10-09T16:00:48.268Z,24.06
2022-10-09T16:03:52.146Z,24.06
2022-10-09T16:06:58.164Z,24.08
2022-10-09T16:10:01.794Z,24.10
2022-10-09T16:13:04.855Z,24.11
2022-10-09T16:16:12.616Z,24.13
2022-10-09T16:19:15.644Z,24.13
2022-10-09T16:22:20.165Z,24.14
2022-10-09T16:25:23.257Z,24.12
2022-10-09T16:28:27.836Z,24.13
2022-10-09T16:31:35.534Z,24.14
2022-10-09T16:34:39.459Z,24.12
2022-10-09T16:37:44.038Z,24.09
2022-10-09T16:41:01.845Z,24.03
2022-10-09T16:44:13.184Z,23.96
2022-10-09T16:47:16.453Z,23.91
2022-10-09T16:50:19.883Z,23.86
2022-10-09T16:53:24.607Z,23.82
2022-10-09T16:56:33.055Z,23.77
2022-10-09T16:59:37.502Z,23.72
2022-10-09T17:02:40.801Z,23.68
2022-10-09T17:05:43.995Z,23.65
2022-10-09T17:08:48.872Z,23.63
2022-10-09T17:11:52.335Z,23.58
2022-10-09T17:14:55.730Z,23.57
2022-10-09T17:17:59.247Z,23.59
2022-10-09T17:21:03.570Z,23.59
2022-10-09T17:24:08.768Z,23.58
2022-10-09T17:27:12.162Z,23.55
2022-10-09T17:30:15.771Z,23.51
2022-10-09T17:33:19.934Z,23.48
2022-10-09T17:36:26.228Z,23.45
2022-10-09T17:39:30.670Z,23.42
2022-10-09T17:42:33.882Z,23.40
2022-10-09T17:45:40.671Z,23.41
2022-10-09T17:48:48.316Z,23.38
2022-10-09T17:51:52.681Z,23.38
2022-10-09T17:54:57.394Z,23.37
2022-10-09T17:58:01.198Z,23.34
2022-10-09T18:01:07.186Z,23.32
2022-10-09T18:04:15.500Z,23.27
2022-10-09T18:07:20.109Z,23.25
2022-10-09T18:10:25.671Z,23.25
2022-10-09T18:13:29.979Z,23.22
2022-10-09T18:16:38.103Z,23.20
2022-10-09T18:19:43.354Z,23.17
2022-10-09T18:22:46.651Z,23.16
2022-10-09T18:25:51.211Z,23.21
2022-10-09T18:28:54.615Z,23.26
2022-10-09T18:31:58.195Z,23.31
2022-10-09T18:35:01.401Z,23.36
2022-10-09T18:38:05.125Z,23.40
2022-10-09T18:41:11.031Z,23.45
2022-10-09T18:44:20.013Z,23.49
2022-10-09T18:47:28.460Z,23.50
2022-10-09T18:50:32.513Z,23.53
2022-10-09T18:53:39.399Z,23.60
2022-10-09T18:56:44.058Z,23.63
2022-10-09T18:59:48.121Z,23.62
2022-10-09T19:02:51.455Z,23.61
2022-10-09T19:05:54.612Z,23.60
2022-10-09T19:09:00.697Z,23.60
2022-10-09T19:12:05.606Z,23.62
2022-10-09T19:15:12.317Z,23.61
2022-10-09T19:18:15.878Z,23.61
2022-10-09T19:21:19.081Z,23.62
2022-10-09T19:24:22.607Z,23.61
2022-10-09T19:27:27.562Z,23.61
2022-10-09T19:30:30.678Z,23.57
2022-10-09T19:33:35.144Z,23.59
2022-10-09T19:36:38.224Z,23.58
2022-10-09T19:39:48.136Z,23.57
2022-10-09T19:42:53.534Z,23.59
2022-10-09T19:46:02.897Z,23.61
2022-10-09T19:49:06.964Z,23.62
2022-10-09T19:52:10.265Z,23.66
2022-10-09T19:55:13.964Z,23.66
2022-10-09T19:58:18.867Z,23.71
2022-10-09T20:01:25.868Z,23.74
2022-10-09T20:04:29.351Z,23.65
2022-10-09T20:07:32.808Z,23.46
2022-10-09T20:10:38.128Z,23.25
2022-10-09T20:13:44.218Z,23.10
2022-10-09T20:16:47.741Z,22.96
2022-10-09T20:19:51.304Z,22.87
2022-10-09T20:22:54.806Z,22.81
2022-10-09T20:26:02.545Z,22.75
2022-10-09T20:29:07.626Z,22.67
2022-10-09T20:32:12.117Z,22.64
2022-10-09T20:35:15.623Z,22.61
2022-10-09T20:38:23.244Z,22.57
2022-10-09T20:41:31.838Z,22.53
2022-10-09T20:44:36.323Z,22.52
2022-10-09T20:47:39.775Z,22.48
2022-10-09T20:50:43.478Z,22.46
2022-10-09T20:53:47.850Z,22.43
2022-10-09T20:56:52.056Z,22.42
2022-10-09T20:59:56.771Z,22.38
2022-10-09T21:03:00.035Z,22.36
2022-10-09T21:06:04.616Z,22.34
2022-10-09T21:09:07.887Z,22.33
2022-10-09T21:12:11.360Z,22.31
2022-10-09T21:15:16.550Z,22.31
2022-10-09T21:18:20.622Z,22.28
2022-10-09T21:21:24.363Z,22.28
2022-10-09T21:24:27.926Z,22.26
2022-10-09T21:27:30.885Z,22.24
2022-10-09T21:30:41.752Z,22.24
2022-10-09T21:33:45.460Z,22.21
2022-10-09T21:40:16.816Z,22.16
2022-10-09T21:43:20.270Z,22.16
2022-10-09T21:46:24.612Z,22.15
2022-10-09T21:49:29.519Z,22.14
2022-10-09T21:52:32.522Z,22.13
2022-10-09T21:55:37.634Z,22.14
2022-10-09T21:58:45.457Z,22.13
2022-10-09T22:01:53.319Z,22.14
2022-10-09T22:04:57.440Z,22.11
2022-10-09T22:08:00.993Z,22.11
2022-10-09T22:11:05.482Z,22.10
2022-10-09T22:14:09.023Z,22.09
2022-10-09T22:17:13.528Z,22.10
2022-10-09T22:20:17.669Z,22.08
2022-10-09T22:23:22.482Z,22.08
2022-10-09T22:26:25.689Z,22.08
2022-10-09T22:29:29.033Z,22.08
2022-10-09T22:32:34.107Z,22.09
2022-10-09T22:35:37.052Z,22.07
2022-10-09T22:38:41.646Z,22.06
2022-10-09T22:41:44.844Z,22.03
2022-10-09T22:44:48.347Z,22.03
2022-10-09T22:47:52.655Z,22.02
2022-10-09T22:50:56.077Z,22.00
2022-10-09T22:54:00.964Z,22.00
2022-10-09T22:57:04.453Z,22.00
2022-10-09T23:00:09.114Z,21.99
2022-10-09T23:03:14.049Z,21.98
2022-10-09T23:06:20.226Z,21.98
2022-10-09T23:09:27.188Z,21.99
2022-10-09T23:12:30.160Z,21.96
2022-10-09T23:15:37.078Z,21.98
2022-10-09T23:18:43.266Z,21.98
2022-10-09T23:21:48.862Z,21.98
2022-10-09T23:24:52.019Z,21.97
2022-10-09T23:27:55.495Z,21.95
2022-10-09T23:31:03.023Z,21.95
2022-10-09T23:34:08.154Z,21.92
2022-10-09T23:37:11.254Z,21.93
2022-10-09T23:40:15.119Z,21.91
2022-10-09T23:43:18.304Z,21.91
2022-10-09T23:46:24.858Z,21.91
2022-10-09T23:49:29.392Z,21.90
2022-10-09T23:52:33.552Z,21.91
2022-10-09T23:55:36.769Z,21.91
2022-10-09T23:58:40.233Z,21.91
